Latest Weather Observations for Lord Howe Island

IDN60801

Issued at 11:43 pm EST Friday 16 April 2021 (issued every 10 minutes, with the page automatically refreshed every 10 minutes)

About weather observations | Map of weather stations | Latest weather observations for NSW | Other Formats
Station Details ID: 200839 Name: LORD HOWE ISLAND AERO Lat: -31.54 Lon: 159.08 Height: 5.0 m
Data from the previous 72 hours. | See also: Recent months at Lord Howe Island

Observations are collected in the New South Wales time zone (Eastern Standard Time) which includes daylight savings in the summer period. Therefore 'Rain since 9am' totals and other values are based on the New South Wales time zone, which may differ from local time.

Date/Time
EST
Temp
°C
App
Temp
°C
Dew
Point
°C
Rel
Hum
%
Delta-T
°C
Wind Press
QNH
hPa
Press
MSL
hPa
Rain since
9am
mm
Dir  Spd
km/h
Gust
km/h
Spd
kts
Gust
kts
16/11:30pm 20.6 20.5 17.0 80 2.2 ESE 13 28 7 15 1020.0 1019.9 0.0
16/11:00pm 20.9 21.4 17.5 81 2.1 SE 11 20 6 11 1019.7 1019.7 0.0
16/10:30pm 20.8 19.8 18.0 84 1.7 ESE 20 39 11 21 1019.5 1019.5 0.0
16/10:00pm 21.0 20.5 17.8 82 2.0 ESE 17 32 9 17 1019.7 1019.7 0.0
16/09:30pm 21.4 21.7 18.0 81 2.1 ESE 13 22 7 12 1019.7 1019.7 0.0
16/09:00pm 21.2 21.8 18.6 85 1.6 E 13 22 7 12 1019.4 1019.4 0.0
16/08:30pm 21.5 22.0 17.5 78 2.5 SE 11 26 6 14 1019.2 1019.2 0.0
16/08:00pm 21.3 21.6 16.9 76 2.7 SSW 11 22 6 12 1018.9 1018.9 0.0
16/07:30pm 21.5 20.7 17.9 80 2.2 SSW 19 32 10 17 1018.6 1018.6 0.0
16/07:00pm 21.1 21.1 17.1 78 2.4 SSW 13 19 7 10 1018.3 1018.3 0.0
16/06:30pm 18.9 19.9 16.3 85 1.6 S 6 11 3 6 1017.8 1017.8 0.0
16/06:00pm 18.0 19.4 15.4 85 1.5 S 2 7 1 4 1017.6 1017.6 0.0
16/05:30pm 19.9 21.5 16.0 78 2.3 S 2 7 1 4 1017.2 1017.2 0.0
16/05:00pm 20.5 22.0 17.7 84 1.7 S 6 11 3 6 1017.1 1017.1 0.0
16/04:30pm 21.1 23.3 20.3 95 0.5 S 9 17 5 9 1016.8 1016.8 0.0
16/04:00pm 22.7 23.4 21.5 93 0.8 WSW 20 30 11 16 1016.4 1016.4 0.0
16/03:30pm 22.8 22.4 20.9 89 1.2 WSW 24 28 13 15 1016.2 1016.2 0.0
16/03:00pm 22.9 22.4 20.8 88 1.4 W 24 30 13 16 1016.1 1016.1 0.0
16/02:30pm 23.9 24.0 21.2 85 1.8 W 22 28 12 15 1016.0 1016.0 0.0
16/02:00pm 23.3 23.6 20.8 86 1.6 W 20 24 11 13 1015.9 1015.9 0.0
16/01:30pm 23.7 24.2 20.8 84 1.9 W 19 24 10 13 1015.9 1015.9 0.0
16/01:00pm 24.5 24.3 21.2 82 2.2 W 24 28 13 15 1016.1 1016.1 0.0
16/12:30pm 24.9 25.3 21.0 79 2.6 W 20 26 11 14 1016.0 1016.0 0.0
16/12:00pm 24.4 24.6 21.3 83 2.0 W 22 28 12 15 1016.3 1016.3 0.0
16/11:30am 24.5 24.7 21.4 83 2.0 W 22 28 12 15 1016.6 1016.6 0.0
16/11:00am 24.7 24.3 21.0 80 2.4 W 24 30 13 16 1016.9 1016.9 0.0
16/10:30am 23.7 23.3 20.2 81 2.3 W 22 26 12 14 1017.2 1017.2 0.0
16/10:00am 25.1 25.8 21.6 81 2.3 W 20 26 11 14 1017.3 1017.3 0.0
16/09:30am 24.6 24.3 20.3 77 2.8 W 22 24 12 13 1017.2 1017.2 0.0
16/09:00am 24.0 24.2 20.5 81 2.3 W 20 24 11 13 1017.1 1017.1 0.0
16/08:30am 23.7 23.5 19.8 79 2.5 W 20 24 11 13 1017.1 1017.1 0.0
16/08:00am 23.3 23.7 19.9 81 2.2 W 17 20 9 11 1016.8 1016.8 0.0
16/07:30am 22.7 22.6 19.5 82 2.0 W 19 22 10 12 1016.8 1016.8 0.0
16/07:00am 22.4 22.5 19.9 86 1.6 WSW 19 24 10 13 1016.7 1016.7 0.0
16/06:30am 22.1 21.8 19.6 86 1.6 W 20 22 11 12 1016.2 1016.2 0.0
16/06:00am 21.5 21.7 19.4 88 1.3 W 17 20 9 11 1016.0 1016.0 0.0
16/05:30am 21.4 21.1 19.1 87 1.5 WSW 19 22 10 12 1015.9 1015.9 0.0
16/05:00am 21.2 20.8 18.9 87 1.4 W 19 22 10 12 1015.7 1015.7 0.0
16/04:30am 21.4 21.0 19.0 86 1.5 W 19 22 10 12 1015.4 1015.4 0.0
16/04:00am 21.1 20.6 18.7 86 1.5 W 19 22 10 12 1015.3 1015.3 0.0
16/03:30am 21.0 20.8 18.6 86 1.5 W 17 20 9 11 1015.3 1015.3 0.0
16/03:00am 21.2 20.6 18.9 87 1.4 W 20 26 11 14 1015.2 1015.2 0.0
16/02:30am 21.1 20.6 18.7 86 1.5 W 19 24 10 13 1015.2 1015.2 0.0
16/02:00am 21.1 20.3 18.5 85 1.6 W 20 24 11 13 1015.3 1015.3 0.0
16/01:30am 21.1 21.7 18.7 86 1.5 W 13 19 7 10 1015.4 1015.4 0.0
16/01:00am 21.2 21.7 18.4 84 1.7 WNW 13 20 7 11 1015.6 1015.6 0.0
16/12:30am 21.2 21.5 18.0 82 2.0 WNW 13 20 7 11 1015.8 1015.8 0.0
16/12:00am 21.3 21.6 17.9 81 2.1 WNW 13 19 7 10 1015.9 1015.9 0.0
 
Date/Time
EST
Temp
°C
App
Temp
°C
Dew
Point
°C
Rel
Hum
%
Delta-T
°C
Wind Press
QNH
hPa
Press
MSL
hPa
Rain since
9am
mm
Dir  Spd
km/h
Gust
km/h
Spd
kts
Gust
kts
15/11:30pm 21.3 21.0 18.3 83 1.9 W 17 22 9 12 1016.0 1016.0 0.0
15/11:00pm 21.3 20.3 17.9 81 2.1 W 20 26 11 14 1016.0 1016.0 0.0
15/10:30pm 21.6 20.3 18.2 81 2.1 W 22 28 12 15 1016.1 1016.1 0.0
15/10:00pm 21.4 21.4 18.0 81 2.1 W 15 20 8 11 1016.1 1016.1 0.0
15/09:30pm 21.3 21.0 17.3 78 2.5 WNW 15 20 8 11 1016.1 1016.1 0.0
15/09:00pm 21.4 21.7 17.8 80 2.2 WNW 13 19 7 10 1016.0 1016.0 0.0
15/08:30pm 21.4 21.3 17.0 76 2.7 WNW 13 20 7 11 1016.1 1016.1 0.0
15/08:00pm 21.3 21.2 16.9 76 2.7 WNW 13 20 7 11 1015.9 1015.9 0.0
15/07:30pm 21.2 21.4 16.8 76 2.7 NW 11 15 6 8 1015.8 1015.8 0.0
15/07:00pm 21.4 21.0 17.2 77 2.6 WNW 15 20 8 11 1015.6 1015.6 0.0
15/06:30pm 21.4 21.5 17.4 78 2.5 WNW 13 20 7 11 1015.4 1015.4 0.0
15/06:00pm 21.3 21.0 17.3 78 2.5 WNW 15 19 8 10 1015.2 1015.2 0.0
15/05:30pm 21.6 20.7 17.8 79 2.4 W 19 30 10 16 1015.0 1015.0 0.0
15/05:00pm 21.5 20.2 17.3 77 2.6 W 20 26 11 14 1014.9 1014.9 0.0
15/04:30pm 22.2 21.8 18.0 77 2.6 W 17 28 9 15 1014.9 1014.9 0.0
15/04:00pm 22.8 21.6 17.5 72 3.3 W 20 26 11 14 1014.8 1014.8 0.0
15/03:30pm 22.7 20.9 16.9 70 3.6 W 22 28 12 15 1014.7 1014.7 0.0
15/03:00pm 23.6 21.5 17.1 67 4.0 W 24 30 13 16 1014.7 1014.7 0.0
15/02:30pm 23.6 22.4 17.1 67 4.0 W 19 26 10 14 1014.9 1014.9 0.0
15/02:00pm 24.3 22.8 17.8 67 4.1 W 22 28 12 15 1015.0 1015.0 0.0
15/01:30pm 24.5 23.4 17.7 66 4.2 W 20 30 11 16 1014.9 1014.9 0.0
15/01:00pm 24.1 23.4 17.4 66 4.2 W 17 24 9 13 1014.9 1014.9 0.0
15/12:30pm 24.4 23.4 17.9 67 4.1 W 20 28 11 15 1015.3 1015.3 0.0
15/12:00pm 24.1 22.9 17.4 66 4.2 W 20 26 11 14 1015.9 1015.9 0.0
15/11:30am 24.3 23.7 17.5 66 4.2 W 17 24 9 13 1016.2 1016.2 0.0
15/11:00am 23.7 22.6 17.2 67 4.0 W 19 26 10 14 1016.7 1016.7 0.0
15/10:30am 24.0 23.1 17.7 68 3.9 W 19 26 10 14 1017.0 1017.0 0.0
15/10:00am 23.5 22.6 16.8 66 4.1 WNW 17 20 9 11 1017.2 1017.2 0.0
15/09:30am 23.3 22.1 16.1 64 4.4 WNW 17 22 9 12 1017.2 1017.2 0.0
15/09:00am 22.7 20.7 16.5 68 3.8 W 22 28 12 15 1017.3 1017.3 0.0
15/08:30am 22.6 20.7 16.6 69 3.7 W 22 26 12 14 1017.2 1017.2 0.0
15/08:00am 21.8 19.3 16.1 70 3.4 W 24 28 13 15 1017.2 1017.2 0.0
15/07:30am 22.1 20.8 15.7 67 3.8 W 17 22 9 12 1016.8 1016.8 0.0
15/07:00am 21.6 21.2 15.2 67 3.8 NW 11 20 6 11 1016.7 1016.7 0.0
15/06:30am 21.0 20.0 15.5 71 3.3 WNW 15 22 8 12 1016.7 1016.7 0.0
15/06:00am 20.9 19.8 15.4 71 3.3 WNW 15 20 8 11 1016.3 1016.3 0.0
15/05:30am 20.9 18.7 15.9 73 3.0 W 22 28 12 15 1016.4 1016.4 0.0
15/05:00am 20.7 18.4 15.7 73 3.0 W 22 30 12 16 1016.2 1016.2 0.0
15/04:30am 20.5 17.1 14.8 70 3.3 W 26 32 14 17 1016.2 1016.2 0.0
15/04:00am 20.7 19.1 15.0 70 3.4 WNW 17 26 9 14 1015.9 1015.9 0.0
15/03:30am 20.7 18.9 14.4 67 3.7 WNW 17 26 9 14 1015.8 1015.8 0.0
15/03:00am 20.3 19.1 14.0 67 3.6 WNW 13 20 7 11 1015.7 1015.7 0.0
15/02:30am 20.3 18.8 14.2 68 3.5 WNW 15 19 8 10 1016.1 1016.1 0.0
15/02:00am 20.0 19.4 13.5 66 3.7 NW 9 13 5 7 1016.3 1016.3 0.0
15/01:30am 20.1 19.4 13.3 65 3.9 NW 9 17 5 9 1016.6 1016.6 0.0
15/01:00am 20.3 19.4 13.7 66 3.8 WNW 11 20 6 11 1017.2 1017.2 0.0
15/12:30am 20.6 19.3 13.8 65 3.9 NW 13 19 7 10 1017.4 1017.4 0.0
15/12:00am 20.0 19.8 13.7 67 3.6 NW 7 13 4 7 1017.5 1017.5 0.0
 
Date/Time
EST
Temp
°C
App
Temp
°C
Dew
Point
°C
Rel
Hum
%
Delta-T
°C
Wind Press
QNH
hPa
Press
MSL
hPa
Rain since
9am
mm
Dir  Spd
km/h
Gust
km/h
Spd
kts
Gust
kts
14/11:30pm 19.7 19.0 13.2 66 3.7 NNW 9 17 5 9 1017.5 1017.5 0.0
14/11:00pm 18.7 19.9 14.8 78 2.3 WNW 2 7 1 4 1017.7 1017.7 0.0
14/10:30pm 18.6 18.7 14.5 77 2.4 WNW 7 11 4 6 1017.8 1017.8 0.0
14/10:00pm 17.9 18.3 13.8 77 2.3 NW 4 7 2 4 1017.8 1017.8 0.0
14/09:30pm 19.4 19.4 14.2 72 3.0 WNW 7 13 4 7 1017.8 1017.8 0.0
14/09:00pm 19.5 19.2 14.5 73 2.9 WNW 9 13 5 7 1017.9 1017.9 0.0
14/08:30pm 19.6 18.9 14.2 71 3.1 WSW 11 17 6 9 1018.0 1018.0 0.0
14/08:00pm 19.7 19.4 14.3 71 3.1 WSW 9 13 5 7 1017.9 1017.9 0.0
14/07:30pm 19.9 19.1 14.0 69 3.4 W 11 15 6 8 1017.8 1017.8 0.0
14/07:00pm 19.8 19.1 14.2 70 3.2 WNW 11 19 6 10 1017.7 1017.7 0.0
14/06:30pm 19.8 18.7 14.4 71 3.1 W 13 17 7 9 1017.6 1017.6 0.0
14/06:00pm 20.0 19.3 14.4 70 3.2 W 11 15 6 8 1017.5 1017.5 0.0
14/05:30pm 20.4 19.2 15.0 71 3.2 WSW 15 20 8 11 1017.4 1017.4 0.0
14/05:00pm 20.3 20.5 15.7 75 2.7 SW 9 13 5 7 1017.3 1017.3 0.0
14/04:30pm 20.8 20.1 16.4 76 2.7 WSW 15 22 8 12 1017.2 1017.2 0.0
14/04:00pm 21.4 22.1 16.1 72 3.2 SW 7 11 4 6 1017.1 1017.1 0.0
14/03:30pm 21.5 21.6 15.6 69 3.5 WSW 9 13 5 7 1017.0 1017.0 0.0
14/03:00pm 21.8 21.2 15.6 68 3.7 WSW 13 17 7 9 1017.2 1017.2 0.0
14/02:30pm 22.1 22.0 16.1 69 3.6 WSW 11 17 6 9 1017.3 1017.3 0.0
14/02:00pm 21.5 21.1 15.1 67 3.8 WSW 11 17 6 9 1017.3 1017.3 0.0
14/01:30pm 22.3 21.2 15.2 64 4.2 WSW 15 19 8 10 1017.3 1017.3 0.0
14/01:00pm 22.0 20.8 15.1 65 4.1 SW 15 22 8 12 1017.1 1017.1 0.0
14/12:30pm 22.2 20.6 15.1 64 4.2 SW 17 22 9 12 1017.5 1017.5 0.0
14/12:00pm 21.7 20.3 14.6 64 4.2 SW 15 20 8 11 1018.1 1018.1 0.0
14/11:30am 21.8 20.4 14.4 63 4.3 WSW 15 20 8 11 1018.4 1018.4 0.0
14/11:00am 22.3 21.4 14.9 63 4.4 SW 13 20 7 11 1018.7 1018.7 0.0
14/10:30am 21.9 20.8 14.3 62 4.4 SW 13 20 7 11 1019.0 1019.0 0.0
14/10:00am 21.9 20.5 14.5 63 4.3 WSW 15 20 8 11 1019.1 1019.1 0.0
14/09:30am 21.9 20.2 14.8 64 4.2 WSW 17 26 9 14 1019.2 1019.2 0.0
14/09:00am 21.6 19.8 14.5 64 4.2 WSW 17 24 9 13 1019.3 1019.3 0.0
14/08:30am 21.4 20.2 14.1 63 4.2 WSW 13 22 7 12 1019.3 1019.3 0.0
14/08:00am 21.1 19.7 13.5 62 4.4 SW 13 20 7 11 1019.3 1019.3 0.0
14/07:30am 20.7 19.4 13.6 64 4.1 SW 13 19 7 10 1019.1 1019.1 0.0
14/07:00am 19.5 18.9 12.3 63 4.0 SSW 7 13 4 7 1019.0 1019.0 0.0
14/06:30am 18.9 18.1 12.9 68 3.4 S 9 13 5 7 1018.8 1018.8 0.0
14/06:00am 18.0 17.5 12.2 69 3.2 S 6 9 3 5 1018.6 1018.6 0.0
14/05:30am 17.0 16.0 11.1 68 3.2 SSW 7 11 4 6 1018.3 1018.3 0.0
14/05:00am 18.6 17.3 11.4 63 3.9 SSW 9 13 5 7 1018.1 1018.1 0.0
14/04:30am 19.4 18.0 12.2 63 4.0 SSW 11 17 6 9 1018.0 1018.0 0.0
14/04:00am 18.8 18.3 10.6 59 4.4 SSE 4 9 2 5 1017.9 1017.9 0.0
14/03:30am 19.4 17.3 11.2 59 4.5 SSW 13 20 7 11 1017.9 1017.9 0.0
14/03:00am 19.5 17.7 12.0 62 4.2 SW 13 19 7 10 1017.9 1017.9 0.0
14/02:30am 19.8 17.1 11.8 60 4.4 SW 17 28 9 15 1017.8 1017.8 0.0
14/02:00am 19.8 17.5 11.6 59 4.5 SSW 15 24 8 13 1018.0 1018.0 0.0
14/01:30am 19.6 17.7 11.9 61 4.3 SSW 13 22 7 12 1018.2 1018.2 0.0
14/01:00am 19.8 17.7 12.3 62 4.2 SW 15 24 8 13 1018.5 1018.5 0.0
14/12:30am 19.9 17.4 12.2 61 4.3 SW 17 24 9 13 1018.7 1018.7 0.0
14/12:00am 19.6 17.4 12.1 62 4.2 SSW 15 30 8 16 1018.8 1018.8 0.0
 
Date/Time
EST
Temp
°C
App
Temp
°C
Dew
Point
°C
Rel
Hum
%
Delta-T
°C
Wind Press
QNH
hPa
Press
MSL
hPa
Rain since
9am
mm
Dir  Spd
km/h
Gust
km/h
Spd
kts
Gust
kts
13/11:30pm 19.8 17.4 12.6 63 4.0 SSW 17 28 9 15 1019.1 1019.1 0.0

Other formats

Comma delimited format used in spreadsheet applications
http://www.bom.gov.au/fwo/IDN60801/IDN60801.94995.axf

JavaScript Object Notation format (JSON) in row-major order
http://www.bom.gov.au/fwo/IDN60801/IDN60801.94995.json

Data quality

Most of these data are generated automatically and are frequently updated. Quality checks on data are not normally performed. It is possible for incorrect values to appear. Refer to information at About Latest Weather Observations and please check the disclaimer before using these data.